Terminal Aerodrome Forecast
Issued by NWS Wilmington, OH

Home | Current Version | Previous Version | Text Only | Print | Product List | Glossary On
Versions: 1 2 3 4 5 6 7 8 9 10 11 12 13 14 15 16 17 18 19 20 21
983
FTUS41 KILN 281321 AAB
TAFCMH
TAF AMD
KCMH 281321Z 2813/2912 18010KT P6SM OVC019
     FM281400 18011KT P6SM BKN035
     FM282200 22012KT P6SM VCTS BKN040CB
     FM290300 24008KT P6SM BKN100
     FM290800 27007KT P6SM SKC=

USA.gov is the U.S. government's official web portal to all federal, state and local government web resources and services.